Time;durP1;ratioP1;P1;durP2;ratioP2;P2;SDS_P1;SDS_P2;PMS_P1;PMS_P2;Temp;Humidity;BMP_temperature;BMP_pressure;BME280_temperature;BME280_humidity;BME280_pressure;Samples;Min_cycle;Max_cycle;Signal;HPM_P1;HPM_P2
2023/11/11 17:22:23;;;;;;;;;7.25;5.50;;;;;;;;3876303;22;2715902;-34
2023/11/11 17:24:46;;;;;;;;;8.33;5.33;;;;;;;;3778344;22;1819012;-30
2023/11/11 17:26:47;;;;;;;;;8.33;5.00;;;;;;;;3773913;28;2747124;-32
2023/11/11 17:28:50;;;;;;;;;6.86;6.00;;;;;;;;3851638;28;3457520;-30
2023/11/11 17:30:50;;;;;;;;;;;;;;;;;;4192714;28;89975;-30
2023/11/11 17:32:53;;;;;;;;;4.71;4.43;;;;;;;;3768367;28;3466159;-30
2023/11/11 17:34:54;;;;;;;;;;;;;;;;;;4193495;28;89978;-31
2023/11/11 17:36:54;;;;;;;;;;;;;;;;;;4193316;28;7627;-25
2023/11/11 17:38:54;;;;;;;;;;;;;;;;;;4194813;28;7659;-29
2023/11/11 17:40:58;;;;;;;;;10.88;6.63;;;;;;;;3758430;28;3479421;-25
2023/11/11 17:43:03;;;;;;;;;;;;;;;;;;4189980;28;89887;-23
2023/11/11 17:45:09;;;;;;;;;;;;;;;;;;4209845;28;7689;-26
2023/11/11 17:47:09;;;;;;;;;;;;;;;;;;4355450;22;7681;-27
2023/11/11 17:49:09;;;;;;;;;;;;;;;;;;4176336;28;7646;-27
2023/11/11 17:51:09;;;;;;;;;;;;;;;;;;4175323;28;7627;-24
2023/11/11 17:53:10;;;;;;;;;;;;;;;;;;4177653;28;7683;-26
2023/11/11 17:55:11;;;;;;;;;;;;;;;;;;4175886;28;7626;-27
2023/11/11 17:57:11;;;;;;;;;;;;;;;;;;4325187;22;7812;-23
2023/11/11 17:59:12;;;;;;;;;14.00;4.33;;;;;;;;4074186;28;1306509;-26
2023/11/11 18:01:16;;;;;;;;;5.20;4.00;;;;;;;;3796891;28;2754404;-20
2023/11/11 18:03:17;;;;;;;;;6.33;5.00;;;;;;;;3735027;28;2735635;-24
2023/11/11 18:05:21;;;;;;;;;6.00;5.00;;;;;;;;3761460;28;2737768;-23
2023/11/11 18:07:22;;;;;;;;;6.00;5.33;;;;;;;;3931383;22;2732522;-23
2023/11/11 18:09:24;;;;;;;;;7.33;5.67;;;;;;;;3773571;28;2741934;-24
2023/11/11 18:11:25;;;;;;;;;6.00;6.00;;;;;;;;3769822;28;2735661;-24
2023/11/11 18:13:27;;;;;;;;;9.00;6.33;;;;;;;;3772322;28;2752339;-33
2023/11/11 18:15:29;;;;;;;;;6.00;5.00;;;;;;;;3796865;28;2739857;-26
2023/11/11 18:17:32;;;;;;;;;7.40;5.60;;;;;;;;3779170;28;2741877;-28
2023/11/11 18:19:37;;;;;;;;;6.33;4.00;;;;;;;;3757057;28;2752308;-28
2023/11/11 18:23:44;;;;;;;;;6.60;5.00;;;;;;;;3792945;22;2732553;-29
2023/11/11 18:25:45;;;;;;;;;7.50;4.00;;;;;;;;3754064;28;2754364;-31
2023/11/11 18:27:48;;;;;;;;;9.80;5.00;;;;;;;;3773474;28;2748149;-30
2023/11/11 18:29:49;;;;;;;;;7.00;6.00;;;;;;;;3753040;28;2734604;-30
2023/11/11 18:31:52;;;;;;;;;11.00;5.80;;;;;;;;3776855;28;2767625;-29
2023/11/11 18:33:54;;;;;;;;;9.00;5.00;;;;;;;;3773182;28;2734636;-29
2023/11/11 18:35:55;;;;;;;;;8.00;6.00;;;;;;;;3755636;28;2751262;-30
2023/11/11 18:37:56;;;;;;;;;6.00;5.00;;;;;;;;3768207;28;2736687;-30
2023/11/11 18:39:57;;;;;;;;;8.00;7.00;;;;;;;;3758434;28;2746336;-30
2023/11/11 18:42:00;;;;;;;;;10.60;5.00;;;;;;;;3773086;28;2738755;-30
2023/11/11 18:44:00;;;;;;;;;7.00;6.00;;;;;;;;3747894;28;2735663;-29
2023/11/11 18:46:03;;;;;;;;;7.80;6.00;;;;;;;;3763279;28;2738027;-30
2023/11/11 18:48:06;;;;;;;;;9.60;5.80;;;;;;;;3763079;28;2746087;-28
2023/11/11 18:50:09;;;;;;;;;5.40;4.60;;;;;;;;3783093;28;2729401;-30
2023/11/11 18:52:11;;;;;;;;;4.00;4.00;;;;;;;;3768968;28;2742929;-29
2023/11/11 18:54:14;;;;;;;;;6.20;4.40;;;;;;;;3766755;28;2746039;-30
2023/11/11 18:56:15;;;;;;;;;5.00;4.00;;;;;;;;3744504;28;2747131;-29
2023/11/11 18:58:17;;;;;;;;;8.33;6.00;;;;;;;;3743667;28;2732547;-29
2023/11/11 19:00:20;;;;;;;;;8.00;5.00;;;;;;;;3783616;28;2727321;-29
2023/11/11 19:02:21;;;;;;;;;7.60;4.00;;;;;;;;3752860;28;3458565;-30
2023/11/11 19:04:24;;;;;;;;;7.00;5.00;;;;;;;;3772976;28;2737768;-29
2023/11/11 19:06:26;;;;;;;;;5.67;5.33;;;;;;;;3746992;28;2737031;-30
2023/11/11 19:08:27;;;;;;;;;4.33;4.00;;;;;;;;3767931;28;2739785;-30
2023/11/11 19:10:28;;;;;;;;;6.33;6.33;;;;;;;;3766312;28;2738759;-30
2023/11/11 19:12:31;;;;;;;;;7.80;6.00;;;;;;;;3778157;28;2741869;-31
2023/11/11 19:14:32;;;;;;;;;7.00;5.00;;;;;;;;3748805;28;2733532;-31
2023/11/11 19:16:33;;;;;;;;;5.67;5.67;;;;;;;;3759229;28;2742918;-30
2023/11/11 19:18:36;;;;;;;;;5.00;4.00;;;;;;;;3779287;28;2754439;-30
2023/11/11 19:20:36;;;;;;;;;6.00;6.00;;;;;;;;3737295;28;2741877;-30
2023/11/11 19:22:37;;;;;;;;;5.00;5.00;;;;;;;;3746072;28;2729402;-30
2023/11/11 19:24:40;;;;;;;;;6.40;3.80;;;;;;;;3759847;28;2754372;-30
2023/11/11 19:26:43;;;;;;;;;6.60;4.20;;;;;;;;3747587;28;2746035;-30
2023/11/11 19:28:46;;;;;;;;;18.17;8.00;;;;;;;;3752372;28;2792978;-30
2023/11/11 19:30:47;;;;;;;;;9.00;6.67;;;;;;;;3751859;28;2746079;-30
2023/11/11 19:32:49;;;;;;;;;6.00;5.33;;;;;;;;3752421;28;2737746;-30
2023/11/11 19:34:50;;;;;;;;;7.33;5.00;;;;;;;;3763373;28;2733570;-30
2023/11/11 19:36:51;;;;;;;;;6.00;5.00;;;;;;;;3767317;28;2744989;-31
2023/11/11 19:38:55;;;;;;;;;4.67;3.00;;;;;;;;3767013;28;2745009;-30
2023/11/11 19:40:57;;;;;;;;;5.20;4.40;;;;;;;;3784213;28;2745012;-31
2023/11/11 19:42:58;;;;;;;;;8.00;5.00;;;;;;;;3753935;28;2749219;-30
2023/11/11 19:45:02;;;;;;;;;8.00;5.40;;;;;;;;3772842;28;2728370;-30
2023/11/11 19:47:03;;;;;;;;;6.67;4.67;;;;;;;;3764983;28;2735690;-30
2023/11/11 19:49:08;;;;;;;;;6.00;5.00;;;;;;;;3783230;28;2746035;-30
2023/11/11 19:51:23;;;;;;;;;7.00;5.60;;;;;;;;3762390;28;2740834;-30
2023/11/11 19:53:24;;;;;;;;;5.00;4.00;;;;;;;;3742694;28;2733836;-30
2023/11/11 19:55:25;;;;;;;;;7.33;6.00;;;;;;;;3767253;28;2740830;-30
2023/11/11 19:57:28;;;;;;;;;5.00;4.00;;;;;;;;3783646;28;2750229;-31
2023/11/11 19:59:32;;;;;;;;;4.60;4.60;;;;;;;;3759194;28;2746027;-30
2023/11/11 20:01:34;;;;;;;;;5.80;4.00;;;;;;;;3747033;28;2744997;-30
2023/11/11 20:03:37;;;;;;;;;4.00;3.00;;;;;;;;3737306;28;2736671;-31
2023/11/11 20:05:38;;;;;;;;;7.00;4.67;;;;;;;;3736664;28;2752292;-30
2023/11/11 20:07:40;;;;;;;;;4.67;3.00;;;;;;;;3765383;28;2750213;-30
2023/11/11 20:09:42;;;;;;;;;5.40;4.00;;;;;;;;3783792;28;2752284;-30
2023/11/11 20:11:45;;;;;;;;;4.80;3.40;;;;;;;;3772635;28;2748130;-30
2023/11/11 20:13:47;;;;;;;;;8.00;4.40;;;;;;;;3771347;28;2752598;-30
2023/11/11 20:15:50;;;;;;;;;6.20;4.20;;;;;;;;3765738;28;2742165;-31
2023/11/11 20:17:54;;;;;;;;;5.20;4.80;;;;;;;;3760384;28;2749160;-30
2023/11/11 20:19:55;;;;;;;;;4.00;3.00;;;;;;;;3745132;28;2737710;-30
2023/11/11 20:21:57;;;;;;;;;5.33;2.33;;;;;;;;3765868;28;2752367;-30
2023/11/11 20:23:59;;;;;;;;;5.60;4.20;;;;;;;;3783151;28;2750506;-30
2023/11/11 20:26:03;;;;;;;;;4.80;3.00;;;;;;;;3761674;28;2732490;-30
2023/11/11 20:28:06;;;;;;;;;5.00;3.00;;;;;;;;3760601;28;2754375;-30
2023/11/11 20:30:07;;;;;;;;;6.00;4.00;;;;;;;;3749930;28;2747077;-30
2023/11/11 20:32:09;;;;;;;;;3.40;3.00;;;;;;;;3765863;28;2733536;-30
2023/11/11 20:34:12;;;;;;;;;4.20;3.80;;;;;;;;3772171;28;2752284;-30
2023/11/11 20:36:14;;;;;;;;;3.00;3.00;;;;;;;;3770027;28;2734585;-30
2023/11/11 20:38:16;;;;;;;;;6.40;3.00;;;;;;;;3757838;28;2734874;-31
2023/11/11 20:40:19;;;;;;;;;6.00;3.00;;;;;;;;3782403;28;2746071;-31
2023/11/11 20:42:22;;;;;;;;;4.00;1.00;;;;;;;;3760308;28;2736957;-31
2023/11/11 20:44:24;;;;;;;;;3.40;3.40;;;;;;;;3768181;28;2736691;-31
2023/11/11 20:46:27;;;;;;;;;3.40;2.60;;;;;;;;3764051;28;2734588;-30
2023/11/11 20:50:54;;;;;;;;;5.67;4.00;;;;;;;;3771333;27;3465819;-30
2023/11/11 20:53:17;;;;;;;;;9.67;4.00;;;;;;;;3803587;28;2770000;-30
2023/11/11 20:55:39;;;;;;;;;4.00;3.80;;;;;;;;3819440;28;2739792;-31
2023/11/11 20:58:02;;;;;;;;;4.80;3.40;;;;;;;;3802474;28;2748146;-30
2023/11/11 21:00:24;;;;;;;;;3.67;2.67;;;;;;;;3786601;28;2739820;-31
2023/11/11 21:02:47;;;;;;;;;4.60;4.20;;;;;;;;3824640;28;2746085;-30
2023/11/11 21:05:15;;;;;;;;;4.60;3.00;;;;;;;;3801600;28;2750213;-31
2023/11/11 21:07:39;;;;;;;;;7.20;3.20;;;;;;;;3802303;28;2740892;-31
2023/11/11 21:10:00;;;;;;;;;4.00;3.33;;;;;;;;3769391;28;2748177;-31
2023/11/11 21:12:24;;;;;;;;;6.60;2.80;;;;;;;;3821914;28;2754438;-30
2023/11/11 21:14:47;;;;;;;;;3.40;3.00;;;;;;;;3801826;28;2725531;-30
2023/11/11 21:17:09;;;;;;;;;4.00;4.00;;;;;;;;3802068;28;2749171;-31
2023/11/11 21:19:32;;;;;;;;;4.67;3.00;;;;;;;;3784837;28;2749174;-31
2023/11/11 21:21:54;;;;;;;;;4.20;3.80;;;;;;;;3824883;28;2743954;-30
2023/11/11 21:24:18;;;;;;;;;5.60;3.00;;;;;;;;3800292;28;2739836;-30
2023/11/11 21:26:39;;;;;;;;;3.00;2.67;;;;;;;;3782326;28;2747100;-30
2023/11/11 21:29:01;;;;;;;;;2.40;2.00;;;;;;;;3824004;28;2737769;-30
2023/11/11 21:31:24;;;;;;;;;3.20;3.20;;;;;;;;3800313;28;2748121;-30
2023/11/11 21:33:47;;;;;;;;;6.40;4.00;;;;;;;;3802596;28;2744002;-30
2023/11/11 21:36:09;;;;;;;;;6.00;3.00;;;;;;;;3801583;28;2739823;-30
2023/11/11 21:38:32;;;;;;;;;7.20;4.00;;;;;;;;3802125;28;2748114;-30
2023/11/11 21:40:54;;;;;;;;;2.40;2.20;;;;;;;;3802951;28;2741863;-30
2023/11/11 21:43:17;;;;;;;;;4.00;4.00;;;;;;;;3800696;28;2746042;-29
2023/11/11 21:45:39;;;;;;;;;3.00;3.00;;;;;;;;3783935;28;2733539;-30
2023/11/11 21:48:02;;;;;;;;;3.00;2.80;;;;;;;;3824829;28;2736681;-30
2023/11/11 21:50:25;;;;;;;;;7.40;3.60;;;;;;;;3801447;28;2750193;-30
2023/11/11 21:52:48;;;;;;;;;4.20;2.80;;;;;;;;3801206;28;2737752;-30
2023/11/11 21:55:10;;;;;;;;;5.00;3.80;;;;;;;;3799970;28;2750194;-30
2023/11/11 21:57:32;;;;;;;;;4.60;3.00;;;;;;;;3801421;28;2742940;-29
2023/11/11 21:59:56;;;;;;;;;3.40;3.00;;;;;;;;3778331;28;2741865;-30
2023/11/11 22:02:19;;;;;;;;;3.20;3.00;;;;;;;;3789572;28;2746031;-30
2023/11/11 22:04:41;;;;;;;;;5.00;3.60;;;;;;;;3791463;28;2746039;-30
2023/11/11 22:07:03;;;;;;;;;9.20;4.20;;;;;;;;3791666;28;2765829;-34
2023/11/11 22:09:26;;;;;;;;;5.60;3.00;;;;;;;;3790388;28;2739774;-30
2023/11/11 22:11:48;;;;;;;;;4.00;4.00;;;;;;;;3789978;28;2750257;-30
2023/11/11 22:14:11;;;;;;;;;4.60;3.80;;;;;;;;3790711;28;2754368;-30
2023/11/11 22:16:34;;;;;;;;;2.60;2.60;;;;;;;;3792617;28;2733544;-30
2023/11/11 22:18:58;;;;;;;;;6.40;3.80;;;;;;;;3790701;28;2746023;-30
2023/11/11 22:21:21;;;;;;;;;5.00;4.00;;;;;;;;3790113;28;2754387;-30
2023/11/11 22:23:43;;;;;;;;;3.00;3.00;;;;;;;;3791460;28;2740105;-30
2023/11/11 22:26:06;;;;;;;;;3.00;3.00;;;;;;;;3790348;28;2736667;-30
2023/11/11 22:28:29;;;;;;;;;2.60;2.60;;;;;;;;3775921;28;2754360;-30
2023/11/11 22:30:52;;;;;;;;;5.40;3.60;;;;;;;;3791767;28;2744225;-30
2023/11/11 22:33:15;;;;;;;;;5.60;3.00;;;;;;;;3789682;28;2740819;-30
2023/11/11 22:35:37;;;;;;;;;3.40;3.00;;;;;;;;3789975;28;2750208;-30
2023/11/11 22:37:58;;;;;;;;;3.00;3.00;;;;;;;;3773071;28;2743967;-30
2023/11/11 22:40:21;;;;;;;;;3.00;3.00;;;;;;;;3814640;28;2739804;-30
2023/11/11 22:42:43;;;;;;;;;5.00;2.20;;;;;;;;3789106;28;2753350;-30
2023/11/11 22:45:07;;;;;;;;;2.60;2.60;;;;;;;;3790560;28;2726248;-30
2023/11/11 22:47:29;;;;;;;;;4.20;3.60;;;;;;;;3812559;28;2750205;-30
2023/11/11 22:49:51;;;;;;;;;4.60;3.80;;;;;;;;3790911;28;2748119;-30
2023/11/11 22:52:14;;;;;;;;;4.20;3.60;;;;;;;;3789447;28;2736656;-30
2023/11/11 22:54:36;;;;;;;;;4.00;2.00;;;;;;;;3790317;28;2721043;-30
2023/11/11 22:56:59;;;;;;;;;3.00;3.00;;;;;;;;3813513;28;2736668;-30
2023/11/11 22:59:21;;;;;;;;;4.20;2.20;;;;;;;;3789058;28;2731479;-30
2023/11/11 23:01:46;;;;;;;;;3.00;3.00;;;;;;;;3789057;28;2737002;-30
2023/11/11 23:04:09;;;;;;;;;2.40;1.60;;;;;;;;3789952;28;2749156;-30
2023/11/11 23:06:31;;;;;;;;;4.20;2.00;;;;;;;;3791505;28;2730407;-30
2023/11/11 23:08:54;;;;;;;;;4.40;3.00;;;;;;;;3788574;28;2736686;-30
2023/11/11 23:11:17;;;;;;;;;3.40;2.60;;;;;;;;3788915;28;2748106;-30
2023/11/11 23:13:41;;;;;;;;;3.00;2.00;;;;;;;;3770484;28;2750201;-30
2023/11/11 23:16:03;;;;;;;;;3.20;2.40;;;;;;;;3813227;28;2730441;-30
2023/11/11 23:18:26;;;;;;;;;5.40;3.00;;;;;;;;3789426;28;2741863;-30
2023/11/11 23:20:49;;;;;;;;;3.80;2.20;;;;;;;;3790487;28;2727329;-30
2023/11/11 23:23:12;;;;;;;;;3.00;2.00;;;;;;;;3812529;28;2746049;-30
2023/11/11 23:25:35;;;;;;;;;2.80;2.60;;;;;;;;3790752;28;2738755;-30
2023/11/11 23:28:00;;;;;;;;;2.80;2.40;;;;;;;;3789595;28;2733551;-30
2023/11/11 23:30:23;;;;;;;;;1.60;1.00;;;;;;;;3789144;28;2724180;-29
2023/11/11 23:32:45;;;;;;;;;4.20;1.60;;;;;;;;3789765;28;2742906;-30
2023/11/11 23:35:08;;;;;;;;;2.00;1.60;;;;;;;;3789529;28;2739792;-30
2023/11/11 23:37:30;;;;;;;;;1.20;0.60;;;;;;;;3789050;28;2724213;-30
2023/11/11 23:39:53;;;;;;;;;3.80;2.00;;;;;;;;3812546;28;2746035;-30
2023/11/11 23:42:15;;;;;;;;;1.00;1.00;;;;;;;;3789471;28;2721039;-30
2023/11/11 23:44:38;;;;;;;;;2.80;2.80;;;;;;;;3789561;28;2735615;-30
2023/11/11 23:47:00;;;;;;;;;3.80;2.60;;;;;;;;3789349;28;2735664;-29
2023/11/11 23:49:22;;;;;;;;;0.60;0.60;;;;;;;;3788363;28;2733539;-30
2023/11/11 23:51:48;;;;;;;;;2.00;2.00;;;;;;;;3787881;28;2741864;-30
2023/11/11 23:54:11;;;;;;;;;2.60;1.60;;;;;;;;3789354;28;2739793;-30
2023/11/11 23:56:33;;;;;;;;;2.80;2.60;;;;;;;;3788353;28;2731449;-29
2023/11/11 23:58:55;;;;;;;;;1.80;1.40;;;;;;;;3787944;28;2733550;-30
